createdAt,value
2023-02-09T00:02:12.736Z,101646.56
2023-02-09T00:04:41.957Z,101573.03
2023-02-09T00:07:11.054Z,101620.69
2023-02-09T00:09:40.539Z,101629.91
2023-02-09T00:12:23.756Z,101603.06
2023-02-09T00:14:53.260Z,101616.47
2023-02-09T00:17:24.324Z,101601.59
2023-02-09T00:19:56.021Z,101613.94
2023-02-09T00:22:25.601Z,101629.34
2023-02-09T00:24:56.506Z,101626.09
2023-02-09T00:27:26.671Z,101594.25
2023-02-09T00:29:56.067Z,101618.19
2023-02-09T00:32:27.438Z,101617.00
2023-02-09T00:34:56.781Z,101622.19
2023-02-09T00:37:25.888Z,101612.81
2023-02-09T00:39:55.322Z,101584.84
2023-02-09T00:42:24.962Z,101601.53
2023-02-09T00:44:54.176Z,101593.47
2023-02-09T00:47:23.376Z,101589.59
2023-02-09T00:49:54.487Z,101593.22
2023-02-09T00:52:24.000Z,101573.88
2023-02-09T00:54:53.312Z,101592.94
2023-02-09T00:57:22.886Z,101554.53
2023-02-09T00:59:57.012Z,101576.25
2023-02-09T01:02:26.423Z,101580.81
2023-02-09T01:05:03.129Z,101591.50
2023-02-09T01:07:33.520Z,101563.47
2023-02-09T01:10:02.710Z,101581.81
2023-02-09T01:12:38.846Z,101594.31
2023-02-09T01:15:11.824Z,101567.34
2023-02-09T01:17:41.461Z,101589.59
2023-02-09T01:20:15.724Z,101564.47
2023-02-09T01:22:50.215Z,101584.31
2023-02-09T01:25:19.516Z,101563.50
2023-02-09T01:27:58.267Z,101588.34
2023-02-09T01:30:27.837Z,101584.84
2023-02-09T01:32:57.617Z,101592.66
2023-02-09T01:35:30.409Z,101594.22
2023-02-09T01:38:06.931Z,101584.16
2023-02-09T01:40:37.478Z,101571.09
2023-02-09T01:43:14.114Z,101573.97
2023-02-09T01:45:48.257Z,101577.28
2023-02-09T01:48:18.725Z,101567.88
2023-02-09T01:50:54.165Z,101586.97
2023-02-09T01:53:24.139Z,101587.28
2023-02-09T01:56:00.647Z,101585.69
2023-02-09T01:58:31.658Z,101562.44
2023-02-09T02:01:00.947Z,101577.69
2023-02-09T02:03:31.806Z,101574.09
2023-02-09T02:06:12.963Z,101553.78
2023-02-09T02:11:20.822Z,101583.38
2023-02-09T02:13:50.542Z,101588.13
2023-02-09T02:16:53.444Z,101587.44
2023-02-09T02:19:57.956Z,101591.56
2023-02-09T02:22:55.182Z,101598.03
2023-02-09T02:25:55.061Z,101597.44
2023-02-09T02:28:53.221Z,101595.00
2023-02-09T02:31:56.254Z,101582.00
2023-02-09T02:34:31.543Z,101609.44
2023-02-09T02:37:09.368Z,101600.94
2023-02-09T02:39:47.911Z,101602.13
2023-02-09T02:42:40.352Z,101570.44
2023-02-09T02:45:15.888Z,101591.59
2023-02-09T02:47:56.793Z,101580.44
2023-02-09T02:50:31.225Z,101595.91
2023-02-09T02:55:46.867Z,101596.59
2023-02-09T02:58:18.647Z,101597.16
2023-02-09T03:00:52.190Z,101576.41
2023-02-09T03:03:27.292Z,101574.28
2023-02-09T03:05:57.516Z,101581.22
2023-02-09T03:08:26.628Z,101593.75
2023-02-09T03:10:56.002Z,101591.78
2023-02-09T03:13:49.469Z,101588.06
2023-02-09T03:16:29.497Z,101594.16
2023-02-09T03:19:14.956Z,101593.56
2023-02-09T03:21:53.924Z,101594.53
2023-02-09T03:24:33.542Z,101604.91
2023-02-09T03:27:08.813Z,101589.56
2023-02-09T03:29:39.860Z,101578.75
2023-02-09T03:32:10.577Z,101587.31
2023-02-09T03:34:47.765Z,101591.63
2023-02-09T03:37:17.229Z,101531.78
2023-02-09T03:39:47.563Z,101566.41
2023-02-09T03:42:21.892Z,101592.09
2023-02-09T03:44:51.194Z,101575.19
2023-02-09T03:47:20.319Z,101581.44
2023-02-09T03:49:51.660Z,101579.78
2023-02-09T03:52:20.924Z,101571.31
2023-02-09T03:54:50.129Z,101535.72
2023-02-09T03:57:24.602Z,101582.81
2023-02-09T03:59:53.961Z,101577.75
2023-02-09T04:02:23.113Z,101588.31
2023-02-09T04:04:59.336Z,101590.06
2023-02-09T04:07:28.805Z,101586.44
2023-02-09T04:09:57.911Z,101587.63
2023-02-09T04:12:27.846Z,101563.97
2023-02-09T04:14:56.898Z,101582.06
2023-02-09T04:17:34.039Z,101561.44
2023-02-09T04:20:05.557Z,101579.13
2023-02-09T04:22:34.857Z,101579.81
2023-02-09T04:25:06.640Z,101569.66
2023-02-09T04:27:36.548Z,101572.31
2023-02-09T04:30:06.836Z,101523.34
2023-02-09T04:32:37.784Z,101568.97
2023-02-09T04:35:15.258Z,101566.81
2023-02-09T04:37:44.537Z,101554.03
2023-02-09T04:40:14.213Z,101569.59
2023-02-09T04:42:50.206Z,101573.88
2023-02-09T04:45:19.509Z,101568.22
2023-02-09T04:47:51.443Z,101557.09
2023-02-09T04:50:22.462Z,101574.66
2023-02-09T04:52:51.866Z,101554.94
2023-02-09T04:55:21.025Z,101562.06
2023-02-09T04:58:03.294Z,101579.25
2023-02-09T05:00:32.612Z,101566.25
2023-02-09T05:03:02.058Z,101570.47
2023-02-09T05:05:41.304Z,101578.38
2023-02-09T05:08:10.956Z,101569.59
2023-02-09T05:10:40.212Z,101521.69
2023-02-09T05:13:14.420Z,101550.63
2023-02-09T05:15:49.557Z,101586.09
2023-02-09T05:18:19.115Z,101562.94
2023-02-09T05:20:50.509Z,101570.66
2023-02-09T05:23:20.260Z,101574.06
2023-02-09T05:25:49.705Z,101546.41
2023-02-09T05:28:19.053Z,101549.47
2023-02-09T05:33:42.784Z,101544.47
2023-02-09T05:36:19.333Z,101525.22
2023-02-09T05:38:49.746Z,101565.19
2023-02-09T05:41:31.912Z,101553.53
2023-02-09T05:44:00.715Z,101567.81
2023-02-09T05:46:30.734Z,101565.38
2023-02-09T05:48:59.938Z,101539.88
2023-02-09T05:51:31.278Z,101575.03
2023-02-09T05:54:01.845Z,101560.75
2023-02-09T05:56:31.161Z,101566.06
2023-02-09T05:59:00.436Z,101568.78
2023-02-09T06:01:34.819Z,101568.78
2023-02-09T06:04:04.309Z,101543.59
2023-02-09T06:06:35.509Z,101550.72
2023-02-09T06:09:06.745Z,101570.13
2023-02-09T06:11:36.137Z,101571.78
2023-02-09T06:14:05.643Z,101569.53
2023-02-09T06:16:34.900Z,101569.22
2023-02-09T06:19:04.120Z,101559.34
2023-02-09T06:21:35.423Z,101560.00
2023-02-09T06:24:04.653Z,101555.00
2023-02-09T06:26:38.880Z,101537.72
2023-02-09T06:29:09.274Z,101540.16
2023-02-09T06:31:43.674Z,101538.63
2023-02-09T06:34:13.116Z,101524.47
2023-02-09T06:36:44.955Z,101537.06
2023-02-09T06:39:14.333Z,101541.97
2023-02-09T06:41:43.375Z,101541.50
2023-02-09T06:44:13.249Z,101549.81
2023-02-09T06:46:42.569Z,101556.84
2023-02-09T06:49:11.724Z,101551.97
2023-02-09T06:51:48.152Z,101551.97
2023-02-09T06:54:23.198Z,101549.69
2023-02-09T06:56:52.472Z,101558.97
2023-02-09T06:59:21.795Z,101556.97
2023-02-09T07:01:54.873Z,101559.00
2023-02-09T07:04:29.680Z,101561.06
2023-02-09T07:07:01.041Z,101564.44
2023-02-09T07:09:30.262Z,101534.63
2023-02-09T07:11:59.294Z,101560.34
2023-02-09T07:14:28.848Z,101564.25
2023-02-09T07:16:57.857Z,101561.38
2023-02-09T07:19:27.056Z,101539.31
2023-02-09T07:21:57.668Z,101535.72
2023-02-09T07:24:29.223Z,101549.06
2023-02-09T07:26:58.571Z,101555.25
2023-02-09T07:29:27.730Z,101555.25
2023-02-09T07:31:57.294Z,101564.69
2023-02-09T07:34:26.960Z,101544.94
2023-02-09T07:36:56.126Z,101540.47
2023-02-09T07:39:25.329Z,101543.47
2023-02-09T07:44:49.858Z,101492.38
2023-02-09T07:47:19.145Z,101540.47
2023-02-09T07:49:48.488Z,101499.75
2023-02-09T07:52:17.757Z,101545.41
2023-02-09T07:54:46.978Z,101554.16
2023-02-09T07:57:18.213Z,101552.44
2023-02-09T07:59:48.296Z,101551.91
2023-02-09T08:02:26.650Z,101553.56
2023-02-09T08:04:59.987Z,101546.97
2023-02-09T08:07:29.792Z,101535.03
2023-02-09T08:09:59.050Z,101547.34
2023-02-09T08:12:43.988Z,101554.00
2023-02-09T08:15:13.814Z,101545.19
2023-02-09T08:17:43.390Z,101470.06
2023-02-09T08:20:23.075Z,101536.25
2023-02-09T08:23:06.846Z,101542.91
2023-02-09T08:25:37.727Z,101544.72
2023-02-09T08:28:09.756Z,101532.88
2023-02-09T08:30:39.985Z,101539.72
2023-02-09T08:33:15.269Z,101551.06
2023-02-09T08:38:20.640Z,101540.06
2023-02-09T08:40:49.826Z,101535.50
2023-02-09T08:43:26.094Z,101542.09
2023-02-09T08:45:55.434Z,101544.63
2023-02-09T08:48:33.250Z,101545.88
2023-02-09T08:51:03.940Z,101535.34
2023-02-09T08:53:33.311Z,101549.44
2023-02-09T08:56:02.750Z,101532.66
2023-02-09T08:58:34.547Z,101539.31
2023-02-09T09:01:09.737Z,101536.13
2023-02-09T09:03:39.840Z,101520.03
2023-02-09T09:06:13.560Z,101521.81
2023-02-09T09:08:43.252Z,101526.53
2023-02-09T09:11:14.583Z,101529.31
2023-02-09T09:13:50.869Z,101526.69
2023-02-09T09:16:22.340Z,101534.25
2023-02-09T09:18:57.439Z,101523.97
2023-02-09T09:21:26.840Z,101510.75
2023-02-09T09:23:56.026Z,101523.25
2023-02-09T09:26:25.180Z,101513.84
2023-02-09T09:28:57.034Z,101518.47
2023-02-09T09:31:26.368Z,101516.06
2023-02-09T09:33:56.968Z,101524.28
2023-02-09T09:36:32.971Z,101521.66
2023-02-09T09:39:07.796Z,101525.81
2023-02-09T09:41:38.411Z,101503.72
2023-02-09T09:44:17.363Z,101510.91
2023-02-09T09:46:50.261Z,101512.59
2023-02-09T09:49:27.016Z,101513.69
2023-02-09T09:52:00.932Z,101509.97
2023-02-09T09:54:33.447Z,101506.66
2023-02-09T09:57:20.520Z,101508.25
2023-02-09T09:59:52.170Z,101508.69
2023-02-09T10:02:35.885Z,101498.69
2023-02-09T10:05:19.477Z,101476.66
2023-02-09T10:10:40.537Z,101500.94
2023-02-09T10:13:16.722Z,101505.47
2023-02-09T10:15:50.301Z,101490.53
2023-02-09T10:18:25.708Z,101493.50
2023-02-09T10:20:56.203Z,101493.94
2023-02-09T10:23:33.810Z,101486.91
2023-02-09T10:26:26.848Z,101487.94
2023-02-09T10:28:59.326Z,101490.88
2023-02-09T10:31:43.243Z,101468.38
2023-02-09T10:34:17.191Z,101469.84
2023-02-09T10:36:51.760Z,101471.72
2023-02-09T10:39:28.696Z,101481.91
2023-02-09T10:44:57.175Z,101444.78
2023-02-09T10:47:32.281Z,101475.50
2023-02-09T10:50:29.427Z,101478.28
2023-02-09T10:53:03.114Z,101466.97
2023-02-09T10:55:41.273Z,101409.75
2023-02-09T10:58:21.571Z,101461.88
2023-02-09T11:00:54.492Z,101420.72
2023-02-09T11:03:30.831Z,101455.31
2023-02-09T11:06:03.273Z,101456.34
2023-02-09T11:11:31.207Z,101446.59
2023-02-09T11:14:00.857Z,101422.19
2023-02-09T11:17:06.194Z,101454.31
2023-02-09T11:19:59.149Z,101433.56
2023-02-09T11:22:46.831Z,101448.63
2023-02-09T11:25:24.453Z,101444.00
2023-02-09T11:28:10.562Z,101444.59
2023-02-09T11:31:02.401Z,101444.66
2023-02-09T11:33:49.278Z,101431.09
2023-02-09T11:36:48.158Z,101423.59
2023-02-09T11:39:30.019Z,101451.59
2023-02-09T11:42:17.253Z,101440.50
2023-02-09T11:44:53.704Z,101422.81
2023-02-09T11:47:27.775Z,101440.34
2023-02-09T11:50:06.545Z,101438.75
2023-02-09T11:52:49.511Z,101413.97
2023-02-09T11:55:27.030Z,101442.25
2023-02-09T11:58:04.917Z,101436.50
2023-02-09T12:00:53.445Z,101446.88
2023-02-09T12:03:27.075Z,101439.31
2023-02-09T12:05:57.203Z,101442.41
2023-02-09T12:09:00.762Z,101438.13
2023-02-09T12:11:50.077Z,101430.19
2023-02-09T12:14:37.066Z,101436.91
2023-02-09T12:20:04.407Z,101440.63
2023-02-09T12:22:57.425Z,101431.94
2023-02-09T12:25:40.339Z,101417.81
2023-02-09T12:28:17.203Z,101410.72
2023-02-09T12:31:00.875Z,101430.88
2023-02-09T12:36:31.805Z,101436.97
2023-02-09T12:39:24.041Z,101426.97
2023-02-09T12:42:08.921Z,101427.94
2023-02-09T12:44:56.891Z,101421.56
2023-02-09T12:53:49.804Z,101431.97
2023-02-09T12:56:33.664Z,101418.47
2023-02-09T12:59:27.293Z,101411.78
2023-02-09T13:02:26.704Z,101410.03
2023-02-09T13:05:14.397Z,101416.31
2023-02-09T13:07:51.469Z,101362.47
2023-02-09T13:10:29.908Z,101421.56
2023-02-09T13:13:07.188Z,101415.91
2023-02-09T13:15:54.099Z,101407.47
2023-02-09T13:18:34.690Z,101397.28
2023-02-09T13:21:18.115Z,101408.59
2023-02-09T13:23:59.917Z,101398.78
2023-02-09T13:26:39.585Z,101399.97
2023-02-09T13:29:20.444Z,101385.22
2023-02-09T13:32:10.481Z,101405.47
2023-02-09T13:34:47.264Z,101395.88
2023-02-09T13:37:29.992Z,101374.69
2023-02-09T13:40:01.267Z,101393.47
2023-02-09T13:42:38.080Z,101396.84
2023-02-09T13:45:19.978Z,101392.28
2023-02-09T13:47:49.702Z,101389.13
2023-02-09T13:50:20.876Z,101392.13
2023-02-09T13:52:50.864Z,101377.22
2023-02-09T13:55:22.866Z,101406.66
2023-02-09T13:58:00.851Z,101394.91
2023-02-09T14:00:32.913Z,101380.44
2023-02-09T14:03:16.560Z,101372.66
2023-02-09T14:05:58.603Z,101387.72
2023-02-09T14:08:28.792Z,101382.09
2023-02-09T14:11:02.676Z,101354.13
2023-02-09T14:13:37.432Z,101386.81
2023-02-09T14:16:09.364Z,101384.94
2023-02-09T14:18:50.611Z,101386.50
2023-02-09T14:21:31.938Z,101378.78
2023-02-09T14:24:23.620Z,101373.44
2023-02-09T14:26:58.987Z,101332.13
2023-02-09T14:29:32.862Z,101386.16
2023-02-09T14:32:09.050Z,101375.19
2023-02-09T14:34:45.314Z,101374.50
2023-02-09T14:37:31.452Z,101366.25
2023-02-09T14:40:04.185Z,101321.78
2023-02-09T14:42:38.823Z,101372.31
2023-02-09T14:45:32.124Z,101356.69
2023-02-09T14:48:01.457Z,101366.41
2023-02-09T14:50:31.480Z,101363.00
2023-02-09T14:53:09.426Z,101365.53
2023-02-09T14:55:44.713Z,101333.03
2023-02-09T14:58:21.231Z,101345.22
2023-02-09T15:00:53.968Z,101337.41
2023-02-09T15:03:23.549Z,101354.31
2023-02-09T15:06:02.542Z,101344.41
2023-02-09T15:08:36.016Z,101347.97
2023-02-09T15:11:27.962Z,101337.06
2023-02-09T15:14:01.186Z,101357.38
2023-02-09T15:16:32.597Z,101355.28
2023-02-09T15:19:04.552Z,101347.66
2023-02-09T15:21:33.803Z,101347.91
2023-02-09T15:24:02.931Z,101324.25
2023-02-09T15:26:39.022Z,101341.03
2023-02-09T15:29:13.246Z,101346.03
2023-02-09T15:31:49.472Z,101349.28
2023-02-09T15:34:30.236Z,101341.66
2023-02-09T15:36:59.644Z,101338.25
2023-02-09T15:39:31.024Z,101334.88
2023-02-09T15:42:25.620Z,101351.94
2023-02-09T15:45:08.109Z,101341.78
2023-02-09T15:47:52.455Z,101346.31
2023-02-09T15:50:21.706Z,101337.91
2023-02-09T15:52:50.931Z,101338.00
2023-02-09T15:55:28.292Z,101309.59
2023-02-09T15:57:58.219Z,101336.75
2023-02-09T16:00:29.563Z,101340.16
2023-02-09T16:03:02.201Z,101281.81
2023-02-09T16:05:32.087Z,101333.44
2023-02-09T16:08:02.058Z,101346.16
2023-02-09T16:10:32.022Z,101342.84
2023-02-09T16:13:01.211Z,101334.31
2023-02-09T16:15:30.376Z,101299.69
2023-02-09T16:18:01.347Z,101327.31
2023-02-09T16:20:35.955Z,101322.97
2023-02-09T16:23:19.881Z,101332.53
2023-02-09T16:26:01.548Z,101322.19
2023-02-09T16:28:41.056Z,101328.84
2023-02-09T16:31:11.051Z,101320.91
2023-02-09T16:33:43.452Z,101309.63
2023-02-09T16:36:17.538Z,101315.94
2023-02-09T16:38:53.003Z,101312.19
2023-02-09T16:41:35.225Z,101317.19
2023-02-09T16:44:25.993Z,101321.41
2023-02-09T16:46:57.479Z,101281.97
2023-02-09T16:49:35.924Z,101301.75
2023-02-09T16:52:17.825Z,101305.56
2023-02-09T16:54:54.147Z,101302.06
2023-02-09T16:57:24.958Z,101263.53
2023-02-09T16:59:55.427Z,101285.22
2023-02-09T17:02:36.842Z,101302.28
2023-02-09T17:05:19.598Z,101277.66
2023-02-09T17:07:55.224Z,101290.34
2023-02-09T17:10:28.830Z,101302.28
2023-02-09T17:12:58.254Z,101290.50
2023-02-09T17:15:31.669Z,101261.28
2023-02-09T17:18:03.308Z,101299.03
2023-02-09T17:20:44.655Z,101294.34
2023-02-09T17:23:18.208Z,101220.75
2023-02-09T17:25:48.481Z,101294.34
2023-02-09T17:28:23.325Z,101280.41
2023-02-09T17:30:53.586Z,101259.66
2023-02-09T17:33:25.741Z,101279.09
2023-02-09T17:36:25.917Z,101274.00
2023-02-09T17:39:02.530Z,101266.81
2023-02-09T17:41:40.378Z,101252.88
2023-02-09T17:47:05.526Z,101268.13
2023-02-09T17:49:34.826Z,101261.31
2023-02-09T17:52:07.044Z,101250.91
2023-02-09T17:54:36.208Z,101217.44
2023-02-09T17:57:05.393Z,101256.94
2023-02-09T17:59:39.601Z,101219.19
2023-02-09T18:02:15.876Z,101259.16
2023-02-09T18:04:55.682Z,101248.97
2023-02-09T18:07:27.081Z,101248.06
2023-02-09T18:09:56.395Z,101249.69
2023-02-09T18:12:28.080Z,101220.34
2023-02-09T18:14:58.709Z,101245.81
2023-02-09T18:17:28.083Z,101241.47
2023-02-09T18:20:01.408Z,101242.16
2023-02-09T18:22:37.830Z,101246.38
2023-02-09T18:25:13.883Z,101230.44
2023-02-09T18:27:43.202Z,101224.56
2023-02-09T18:30:14.188Z,101224.03
2023-02-09T18:32:48.774Z,101211.06
2023-02-09T18:35:26.079Z,101217.84
2023-02-09T18:37:57.359Z,101213.53
2023-02-09T18:40:26.958Z,101229.03
2023-02-09T18:43:01.638Z,101172.22
2023-02-09T18:45:32.120Z,101219.75
2023-02-09T18:48:01.672Z,101193.72
2023-02-09T18:50:33.835Z,101175.78
2023-02-09T18:53:05.562Z,101200.31
2023-02-09T18:55:36.323Z,101183.47
2023-02-09T18:58:08.924Z,101200.97
2023-02-09T19:00:38.344Z,101184.78
2023-02-09T19:03:07.461Z,101189.63
2023-02-09T19:05:42.629Z,101192.94
2023-02-09T19:08:13.865Z,101190.03
2023-02-09T19:10:44.804Z,101190.03
2023-02-09T19:13:14.043Z,101185.19
2023-02-09T19:15:43.338Z,101165.75
2023-02-09T19:18:22.606Z,101162.19
2023-02-09T19:20:55.140Z,101189.25
2023-02-09T19:26:12.122Z,101171.19
2023-02-09T19:28:41.187Z,101166.56
2023-02-09T19:31:13.282Z,101160.50
2023-02-09T19:33:42.536Z,101154.09
2023-02-09T19:36:15.023Z,101142.47
2023-02-09T19:38:46.795Z,101164.56
2023-02-09T19:41:16.816Z,101156.47
2023-02-09T19:43:45.899Z,101155.94
2023-02-09T19:46:15.518Z,101149.81
2023-02-09T19:48:45.960Z,101138.53
2023-02-09T19:51:20.227Z,101108.94
2023-02-09T19:53:52.841Z,101137.09
2023-02-09T19:56:23.052Z,101145.78
2023-02-09T19:58:57.361Z,101139.56
2023-02-09T20:01:26.543Z,101139.47
2023-02-09T20:03:56.002Z,101121.50
2023-02-09T20:06:25.628Z,101115.19
2023-02-09T20:08:57.045Z,101112.00
2023-02-09T20:11:32.879Z,101117.53
2023-02-09T20:14:02.723Z,101091.31
2023-02-09T20:16:31.851Z,101116.50
2023-02-09T20:19:11.577Z,101098.31
2023-02-09T20:21:42.499Z,101093.22
2023-02-09T20:24:16.238Z,101094.00
2023-02-09T20:26:46.558Z,101092.78
2023-02-09T20:29:16.343Z,101098.69
2023-02-09T20:31:46.515Z,101085.88
2023-02-09T20:34:22.417Z,101091.91
2023-02-09T20:36:51.663Z,101092.97
2023-02-09T20:39:28.101Z,101086.59
2023-02-09T20:42:17.469Z,101097.94
2023-02-09T20:44:59.679Z,101066.63
2023-02-09T20:47:29.395Z,101099.09
2023-02-09T20:50:09.604Z,101061.38
2023-02-09T20:52:39.237Z,101098.16
2023-02-09T20:55:10.607Z,101101.31
2023-02-09T20:57:39.842Z,101091.75
2023-02-09T21:00:11.346Z,101098.16
2023-02-09T21:02:42.162Z,101095.63
2023-02-09T21:05:11.845Z,101082.94
2023-02-09T21:07:41.114Z,101098.44
2023-02-09T21:10:20.257Z,101087.28
2023-02-09T21:12:49.554Z,101083.28
2023-02-09T21:15:18.827Z,101049.31
2023-02-09T21:17:51.078Z,101073.19
2023-02-09T21:20:20.341Z,101073.88
2023-02-09T21:22:50.079Z,101081.34
2023-02-09T21:25:21.805Z,101067.03
2023-02-09T21:27:51.113Z,101075.03
2023-02-09T21:30:25.311Z,101062.66
2023-02-09T21:32:54.690Z,101055.84
2023-02-09T21:35:24.488Z,101049.63
2023-02-09T21:37:59.002Z,101035.56
2023-02-09T21:40:30.402Z,101023.72
2023-02-09T21:42:59.839Z,101020.31
2023-02-09T21:45:28.950Z,101033.59
2023-02-09T21:47:58.232Z,101042.81
2023-02-09T21:50:27.673Z,101040.28
2023-02-09T21:52:58.969Z,101037.81
2023-02-09T21:55:36.276Z,101036.13
2023-02-09T21:58:05.551Z,101036.13
2023-02-09T22:00:35.287Z,101029.22
2023-02-09T22:03:04.512Z,101032.66
2023-02-09T22:05:33.649Z,101016.69
2023-02-09T22:08:02.858Z,100997.19
2023-02-09T22:10:33.967Z,100990.94
2023-02-09T22:13:08.038Z,101007.41
2023-02-09T22:15:41.206Z,100989.09
2023-02-09T22:18:15.685Z,100994.19
2023-02-09T22:20:46.527Z,101002.16
2023-02-09T22:23:16.607Z,101007.50
2023-02-09T22:25:52.801Z,100997.41
2023-02-09T22:28:22.138Z,100993.44
2023-02-09T22:30:51.635Z,100985.63
2023-02-09T22:33:26.308Z,100942.13
2023-02-09T22:35:55.409Z,100981.09
2023-02-09T22:38:24.935Z,100968.78
2023-02-09T22:41:05.171Z,100969.91
2023-02-09T22:43:35.180Z,100963.63
2023-02-09T22:46:04.476Z,100968.09
2023-02-09T22:48:38.789Z,100967.22
2023-02-09T22:51:08.107Z,100954.09
2023-02-09T22:53:37.298Z,100961.31
2023-02-09T22:56:08.781Z,100956.31
2023-02-09T22:58:38.092Z,100964.50
2023-02-09T23:01:08.134Z,100951.75
2023-02-09T23:03:37.745Z,100954.16
2023-02-09T23:06:09.037Z,100952.44
2023-02-09T23:08:38.529Z,100940.84
2023-02-09T23:11:12.156Z,100944.00
2023-02-09T23:13:41.476Z,100929.97
2023-02-09T23:16:13.147Z,100932.03
2023-02-09T23:18:46.698Z,100933.44
2023-02-09T23:21:26.240Z,100925.59
2023-02-09T23:23:56.133Z,100923.69
2023-02-09T23:26:27.432Z,100916.06
2023-02-09T23:28:58.508Z,100896.78
2023-02-09T23:31:28.813Z,100903.34
2023-02-09T23:33:58.315Z,100889.56
2023-02-09T23:36:29.811Z,100889.41
2023-02-09T23:39:00.934Z,100899.56
2023-02-09T23:41:32.640Z,100883.53
2023-02-09T23:44:03.124Z,100873.03
2023-02-09T23:46:32.570Z,100886.69
2023-02-09T23:49:01.706Z,100865.41
2023-02-09T23:51:33.078Z,100878.09
2023-02-09T23:54:04.032Z,100877.31
2023-02-09T23:56:38.465Z,100858.25
2023-02-09T23:59:09.444Z,100862.56
